createdAt,value
2019-05-26T00:03:37.145Z,5.50
2019-05-26T00:08:01.948Z,4.97
2019-05-26T00:12:26.090Z,5.80
2019-05-26T00:16:50.698Z,6.03
2019-05-26T00:21:14.666Z,6.33
2019-05-26T00:25:38.554Z,5.80
2019-05-26T00:30:03.024Z,6.28
2019-05-26T00:34:27.262Z,5.77
2019-05-26T00:38:52.454Z,7.10
2019-05-26T00:43:16.996Z,9.40
2019-05-26T00:47:40.943Z,7.80
2019-05-26T00:52:06.027Z,7.28
2019-05-26T00:56:29.896Z,5.47
2019-05-26T01:00:53.781Z,6.87
2019-05-26T01:05:17.713Z,6.23
2019-05-26T01:09:41.592Z,8.33
2019-05-26T01:14:06.130Z,10.57
2019-05-26T01:18:29.975Z,9.67
2019-05-26T01:22:54.122Z,9.87
2019-05-26T01:27:18.036Z,7.35
2019-05-26T01:31:42.935Z,8.00
2019-05-26T01:36:07.169Z,7.00
2019-05-26T01:40:39.298Z,7.10
2019-05-26T01:45:03.415Z,7.62
2019-05-26T01:49:27.220Z,7.60
2019-05-26T01:53:51.360Z,8.03
2019-05-26T01:58:15.557Z,8.48
2019-05-26T02:02:39.532Z,8.37
2019-05-26T02:07:03.345Z,8.23
2019-05-26T02:11:27.377Z,8.63
2019-05-26T02:15:51.805Z,9.17
2019-05-26T02:20:16.396Z,9.13
2019-05-26T02:24:40.370Z,9.73
2019-05-26T02:29:05.672Z,11.02
2019-05-26T02:33:29.838Z,9.17
2019-05-26T02:37:53.648Z,9.87
2019-05-26T02:42:17.537Z,9.13
2019-05-26T02:46:41.426Z,9.87
2019-05-26T02:51:06.051Z,9.93
2019-05-26T02:55:29.962Z,12.27
2019-05-26T02:59:55.044Z,11.83
2019-05-26T03:04:19.228Z,10.13
2019-05-26T03:08:44.924Z,9.90
2019-05-26T03:13:09.501Z,10.63
2019-05-26T03:17:35.280Z,11.13
2019-05-26T03:22:00.385Z,10.77
2019-05-26T03:26:27.516Z,11.67
2019-05-26T03:30:51.646Z,11.77
2019-05-26T03:35:15.772Z,13.23
2019-05-26T03:39:45.036Z,12.70
2019-05-26T03:44:05.862Z,14.03
2019-05-26T03:48:29.832Z,12.07
2019-05-26T03:52:53.656Z,13.90
2019-05-26T03:57:17.573Z,14.60
2019-05-26T04:01:41.380Z,14.10
2019-05-26T04:06:06.151Z,15.65
2019-05-26T04:10:29.977Z,17.17
2019-05-26T04:14:53.804Z,18.77
2019-05-26T04:19:18.667Z,18.43
2019-05-26T04:23:42.516Z,18.33
2019-05-26T04:28:06.732Z,20.63
2019-05-26T04:32:31.142Z,18.75
2019-05-26T04:36:56.258Z,20.30
2019-05-26T04:41:20.658Z,20.57
2019-05-26T04:45:44.519Z,21.90
2019-05-26T04:50:09.673Z,18.90
2019-05-26T04:54:33.490Z,22.13
2019-05-26T04:58:57.469Z,21.70
2019-05-26T05:03:21.703Z,21.12
2019-05-26T05:07:45.571Z,19.87
2019-05-26T05:12:09.547Z,21.77
2019-05-26T05:16:33.361Z,22.73
2019-05-26T05:20:57.442Z,20.83
2019-05-26T05:25:23.982Z,22.67
2019-05-26T05:29:48.004Z,21.23
2019-05-26T05:34:11.827Z,22.23
2019-05-26T05:38:36.703Z,21.40
2019-05-26T05:43:00.693Z,19.37
2019-05-26T05:47:24.699Z,22.00
2019-05-26T05:51:48.557Z,20.97
2019-05-26T05:56:12.666Z,23.33
2019-05-26T06:00:36.757Z,22.60
2019-05-26T06:05:00.651Z,22.83
2019-05-26T06:09:24.519Z,23.90
2019-05-26T06:13:48.507Z,23.93
2019-05-26T06:18:12.400Z,25.10
2019-05-26T06:22:36.290Z,25.00
2019-05-26T06:27:00.298Z,26.10
2019-05-26T06:31:24.272Z,26.33
2019-05-26T06:35:48.450Z,26.50
2019-05-26T06:40:12.511Z,25.63
2019-05-26T06:44:52.360Z,25.77
2019-05-26T06:49:02.517Z,24.77
2019-05-26T06:53:26.872Z,25.75
2019-05-26T06:57:50.683Z,24.53
2019-05-26T07:02:14.673Z,25.07
2019-05-26T07:06:38.753Z,25.57
2019-05-26T07:11:02.604Z,22.27
2019-05-26T07:15:26.503Z,24.53
2019-05-26T07:19:50.330Z,25.23
2019-05-26T07:24:14.440Z,25.02
2019-05-26T07:28:38.553Z,24.00
2019-05-26T07:33:02.439Z,23.63
2019-05-26T07:37:26.397Z,24.57
2019-05-26T07:42:08.716Z,23.10
2019-05-26T07:46:17.243Z,22.13
2019-05-26T07:50:41.261Z,22.17
2019-05-26T07:55:07.020Z,22.90
2019-05-26T07:59:31.569Z,22.23
2019-05-26T08:03:55.551Z,22.37
2019-05-26T08:08:19.409Z,21.70
2019-05-26T08:12:43.525Z,21.53
2019-05-26T08:17:08.632Z,21.40
2019-05-26T08:21:32.670Z,20.53
2019-05-26T08:25:56.728Z,21.60
2019-05-26T08:30:20.908Z,19.92
2019-05-26T08:34:44.718Z,18.47
2019-05-26T08:39:09.399Z,23.43
2019-05-26T08:43:33.219Z,18.93
2019-05-26T08:47:57.341Z,18.32
2019-05-26T08:52:21.443Z,18.62
2019-05-26T08:56:45.564Z,18.33
2019-05-26T09:01:09.688Z,17.82
2019-05-26T09:05:33.646Z,19.23
2019-05-26T09:09:57.529Z,17.97
2019-05-26T09:14:25.273Z,18.80
2019-05-26T09:18:47.174Z,17.53
2019-05-26T09:23:11.863Z,17.62
2019-05-26T09:27:35.672Z,16.60
2019-05-26T09:32:00.003Z,16.13
2019-05-26T09:36:24.073Z,15.40
2019-05-26T09:40:47.912Z,13.97
2019-05-26T09:45:13.335Z,14.17
2019-05-26T09:49:37.162Z,14.33
2019-05-26T09:54:02.196Z,13.93
2019-05-26T09:58:26.170Z,14.63
2019-05-26T10:02:50.664Z,14.10
2019-05-26T10:07:15.987Z,14.00
2019-05-26T10:11:40.105Z,12.23
2019-05-26T10:16:05.691Z,14.32
2019-05-26T10:20:29.583Z,13.70
2019-05-26T10:24:53.648Z,12.97
2019-05-26T10:29:17.904Z,14.20
2019-05-26T10:33:41.729Z,12.80
2019-05-26T10:38:05.984Z,13.77
2019-05-26T10:42:29.803Z,13.50
2019-05-26T10:46:53.637Z,14.03
2019-05-26T10:51:17.459Z,14.28
2019-05-26T10:55:41.790Z,14.40
2019-05-26T11:00:07.955Z,13.90
2019-05-26T11:04:31.744Z,14.73
2019-05-26T11:08:55.639Z,13.03
2019-05-26T11:13:19.822Z,14.07
2019-05-26T11:17:43.751Z,13.90
2019-05-26T11:22:07.876Z,12.97
2019-05-26T11:26:31.702Z,13.33
2019-05-26T11:30:55.594Z,10.60
2019-05-26T11:35:19.825Z,10.68
2019-05-26T11:39:45.246Z,10.57
2019-05-26T11:44:17.926Z,11.30
2019-05-26T11:48:38.960Z,10.13
2019-05-26T11:53:01.199Z,10.80
2019-05-26T11:57:25.556Z,11.53
2019-05-26T12:01:49.371Z,12.40
2019-05-26T12:06:13.524Z,10.98
2019-05-26T12:10:37.377Z,11.33
2019-05-26T12:15:01.422Z,11.23
2019-05-26T12:19:25.833Z,10.67
2019-05-26T12:23:49.644Z,11.30
2019-05-26T12:28:13.972Z,13.13
2019-05-26T12:32:38.026Z,10.83
2019-05-26T12:37:01.844Z,10.03
2019-05-26T12:41:25.724Z,8.67
2019-05-26T12:45:49.627Z,10.30
2019-05-26T12:50:14.814Z,10.78
2019-05-26T12:54:38.641Z,11.27
2019-05-26T12:59:02.549Z,10.90
2019-05-26T13:03:26.376Z,11.20
2019-05-26T13:07:50.511Z,12.20
2019-05-26T13:12:14.668Z,12.60
2019-05-26T13:16:38.547Z,11.37
2019-05-26T13:21:06.031Z,14.67
2019-05-26T13:25:29.916Z,14.93
2019-05-26T13:29:53.733Z,13.47
2019-05-26T13:34:17.549Z,14.70
2019-05-26T13:38:41.622Z,13.97
2019-05-26T13:43:06.009Z,13.37
2019-05-26T13:47:30.168Z,13.23
2019-05-26T13:51:53.973Z,12.37
2019-05-26T13:56:18.363Z,12.53
2019-05-26T14:00:42.493Z,12.30
2019-05-26T14:05:07.707Z,11.97
2019-05-26T14:09:31.519Z,12.70
2019-05-26T14:13:55.574Z,13.67
2019-05-26T14:18:20.692Z,14.23
2019-05-26T14:22:44.524Z,13.10
2019-05-26T14:27:08.668Z,14.87
2019-05-26T14:31:33.494Z,16.93
2019-05-26T14:35:57.308Z,16.83
2019-05-26T14:40:21.679Z,16.17
2019-05-26T14:44:46.003Z,18.17
2019-05-26T14:49:09.902Z,19.95
2019-05-26T14:53:33.734Z,18.10
2019-05-26T14:58:13.863Z,18.43
2019-05-26T15:02:23.356Z,18.40
2019-05-26T15:06:47.747Z,19.30
2019-05-26T15:11:11.752Z,19.35
2019-05-26T15:15:35.588Z,20.70
2019-05-26T15:19:59.425Z,20.63
2019-05-26T15:24:23.634Z,22.98
2019-05-26T15:28:47.444Z,21.43
2019-05-26T15:33:12.106Z,21.55
2019-05-26T15:37:36.390Z,20.93
2019-05-26T15:42:00.333Z,22.27
2019-05-26T15:46:25.737Z,25.40
2019-05-26T15:50:49.907Z,25.23
2019-05-26T15:55:14.188Z,25.13
2019-05-26T15:59:38.007Z,25.43
2019-05-26T16:04:01.816Z,23.63
2019-05-26T16:08:25.730Z,22.43
2019-05-26T16:12:49.590Z,21.20
2019-05-26T16:17:13.837Z,21.97
2019-05-26T16:21:37.719Z,19.07
2019-05-26T16:26:01.616Z,18.77
2019-05-26T16:30:25.716Z,19.57
2019-05-26T16:34:49.542Z,17.87
2019-05-26T16:39:13.806Z,17.25
2019-05-26T16:43:37.789Z,16.90
2019-05-26T16:48:01.740Z,15.60
2019-05-26T16:52:25.528Z,14.33
2019-05-26T16:56:49.445Z,12.23
2019-05-26T17:01:13.804Z,9.90
2019-05-26T17:05:38.152Z,7.37
2019-05-26T17:10:02.316Z,6.53
2019-05-26T17:14:26.314Z,4.83
2019-05-26T17:18:50.373Z,4.50
2019-05-26T17:23:14.157Z,4.80
2019-05-26T17:27:38.959Z,4.40
2019-05-26T17:32:02.764Z,4.63
2019-05-26T17:36:26.650Z,4.80
2019-05-26T17:40:50.708Z,5.07
2019-05-26T17:45:14.661Z,5.10
2019-05-26T17:49:38.465Z,5.10
2019-05-26T17:54:02.669Z,4.63
2019-05-26T17:58:26.737Z,4.77
2019-05-26T18:02:50.761Z,4.90
2019-05-26T18:07:14.570Z,5.23
2019-05-26T18:11:38.429Z,5.73
2019-05-26T18:16:02.225Z,6.03
2019-05-26T18:20:26.310Z,6.50
2019-05-26T18:24:56.135Z,7.83
2019-05-26T18:29:15.927Z,6.70
2019-05-26T18:33:40.017Z,7.67
2019-05-26T18:38:05.226Z,9.10
2019-05-26T18:42:30.515Z,8.90
2019-05-26T18:46:54.434Z,9.07
2019-05-26T18:51:18.559Z,8.23
2019-05-26T18:55:42.595Z,10.13
2019-05-26T19:00:07.222Z,9.73
2019-05-26T19:04:31.250Z,9.63
2019-05-26T19:08:55.429Z,9.87
2019-05-26T19:13:19.704Z,10.33
2019-05-26T19:17:43.711Z,9.40
2019-05-26T19:22:08.834Z,9.37
2019-05-26T19:26:32.712Z,9.17
2019-05-26T19:30:58.001Z,8.90
2019-05-26T19:35:22.351Z,9.75
2019-05-26T19:39:46.355Z,8.27
2019-05-26T19:44:10.532Z,8.20
2019-05-26T19:48:37.015Z,7.67
2019-05-26T19:53:00.488Z,7.80
2019-05-26T19:57:24.591Z,7.13
2019-05-26T20:01:48.486Z,7.63
2019-05-26T20:06:12.657Z,7.85
2019-05-26T20:10:36.857Z,7.63
2019-05-26T20:15:00.767Z,7.37
2019-05-26T20:19:25.649Z,7.57
2019-05-26T20:23:49.657Z,6.07
2019-05-26T20:28:13.620Z,6.03
2019-05-26T20:32:37.586Z,5.67
2019-05-26T20:37:02.375Z,5.67
2019-05-26T20:41:26.451Z,5.00
2019-05-26T20:45:50.595Z,5.70
2019-05-26T20:50:28.728Z,5.20
2019-05-26T20:54:42.681Z,5.17
2019-05-26T20:59:07.034Z,4.53
2019-05-26T21:03:30.844Z,4.70
2019-05-26T21:07:54.731Z,4.73
2019-05-26T21:12:18.553Z,4.77
2019-05-26T21:16:42.615Z,4.70
2019-05-26T21:21:06.493Z,5.47
2019-05-26T21:25:30.293Z,5.20
2019-05-26T21:29:54.353Z,4.77
2019-05-26T21:34:18.459Z,5.42
2019-05-26T21:38:42.815Z,5.07
2019-05-26T21:47:35.995Z,4.73
2019-05-26T21:51:59.797Z,5.20
2019-05-26T21:56:23.851Z,4.90
2019-05-26T22:00:48.805Z,5.07
2019-05-26T22:05:13.937Z,5.45
2019-05-26T22:09:37.734Z,6.30
2019-05-26T22:14:01.619Z,6.07
2019-05-26T22:18:25.417Z,5.63
2019-05-26T22:22:49.610Z,5.70
2019-05-26T22:27:13.445Z,6.45
2019-05-26T22:31:37.493Z,6.00
2019-05-26T22:36:01.400Z,6.50
2019-05-26T22:40:25.208Z,6.03
2019-05-26T22:44:49.110Z,7.57
2019-05-26T22:49:13.541Z,5.75
2019-05-26T22:53:37.436Z,5.20
2019-05-26T22:58:01.487Z,5.50
2019-05-26T23:02:25.286Z,5.83
2019-05-26T23:06:49.543Z,6.03
2019-05-26T23:11:13.637Z,7.27
2019-05-26T23:15:37.457Z,6.57
2019-05-26T23:20:01.935Z,6.77
2019-05-26T23:24:25.845Z,6.87
2019-05-26T23:28:50.990Z,6.80
2019-05-26T23:33:14.789Z,7.43
2019-05-26T23:37:38.660Z,7.97
2019-05-26T23:42:02.674Z,7.07
2019-05-26T23:46:26.454Z,8.03
2019-05-26T23:50:50.288Z,9.43
2019-05-26T23:55:14.627Z,10.08
2019-05-26T23:59:39.558Z,9.47
